createdAt,value
2017-09-18T00:00:22.715Z,12.77
2017-09-18T00:02:50.199Z,10.53
2017-09-18T00:05:17.658Z,11.07
2017-09-18T00:07:45.908Z,12.03
2017-09-18T00:10:13.379Z,11.83
2017-09-18T00:12:41.627Z,11.70
2017-09-18T00:15:09.107Z,11.20
2017-09-18T00:17:36.570Z,12.17
2017-09-18T00:20:04.800Z,11.77
2017-09-18T00:22:32.275Z,11.03
2017-09-18T00:24:59.735Z,11.20
2017-09-18T00:27:27.215Z,10.60
2017-09-18T00:29:54.684Z,9.57
2017-09-18T00:32:22.931Z,9.60
2017-09-18T00:34:51.163Z,10.60
2017-09-18T00:37:18.644Z,9.07
2017-09-18T00:39:46.123Z,9.17
2017-09-18T00:42:13.593Z,9.20
2017-09-18T00:44:41.053Z,8.43
2017-09-18T00:47:08.532Z,7.83
2017-09-18T00:49:35.996Z,8.30
2017-09-18T00:52:03.475Z,8.23
2017-09-18T00:54:30.934Z,8.03
2017-09-18T00:56:58.387Z,7.50
2017-09-18T00:59:25.867Z,7.37
2017-09-18T01:01:53.323Z,7.07
2017-09-18T01:04:20.800Z,8.13
2017-09-18T01:06:48.256Z,6.93
2017-09-18T01:09:15.715Z,7.57
2017-09-18T01:11:43.213Z,7.10
2017-09-18T01:14:11.427Z,6.63
2017-09-18T01:16:39.411Z,6.57
2017-09-18T01:19:06.871Z,6.53
2017-09-18T01:21:34.359Z,6.93
2017-09-18T01:24:01.820Z,6.10
2017-09-18T01:26:29.284Z,7.00
2017-09-18T01:28:56.768Z,6.70
2017-09-18T01:31:24.236Z,6.83
2017-09-18T01:33:51.708Z,6.40
2017-09-18T01:36:19.160Z,6.50
2017-09-18T01:38:47.399Z,7.20
2017-09-18T01:41:14.863Z,6.30
2017-09-18T01:43:42.338Z,6.80
2017-09-18T01:46:09.799Z,7.47
2017-09-18T01:48:37.267Z,6.40
2017-09-18T01:51:05.518Z,6.90
2017-09-18T01:53:32.981Z,6.87
2017-09-18T01:56:00.451Z,6.27
2017-09-18T01:58:28.680Z,6.70
2017-09-18T02:00:56.155Z,6.83
2017-09-18T02:03:23.635Z,8.07
2017-09-18T02:05:51.091Z,7.00
2017-09-18T02:08:18.592Z,7.40
2017-09-18T02:10:46.055Z,7.97
2017-09-18T02:13:13.516Z,7.70
2017-09-18T02:15:40.986Z,7.70
2017-09-18T02:18:08.546Z,8.33
2017-09-18T02:20:36.019Z,7.90
2017-09-18T02:23:04.259Z,8.67
2017-09-18T02:25:31.744Z,8.13
2017-09-18T02:27:59.207Z,8.20
2017-09-18T02:30:26.689Z,8.20
2017-09-18T02:32:54.937Z,9.53
2017-09-18T02:35:22.513Z,8.40
2017-09-18T02:37:49.970Z,9.33
2017-09-18T02:40:17.432Z,9.20
2017-09-18T02:42:45.047Z,9.50
2017-09-18T02:45:13.583Z,9.80
2017-09-18T02:47:41.888Z,9.63
2017-09-18T02:50:09.348Z,9.63
2017-09-18T02:52:36.812Z,9.80
2017-09-18T02:55:04.295Z,9.83
2017-09-18T02:57:31.756Z,9.30
2017-09-18T02:59:59.230Z,9.50
2017-09-18T03:02:27.461Z,8.53
2017-09-18T03:04:54.956Z,9.13
2017-09-18T03:07:23.184Z,10.10
2017-09-18T03:09:50.667Z,9.70
2017-09-18T03:12:18.137Z,9.10
2017-09-18T03:14:47.136Z,9.10
2017-09-18T03:17:14.642Z,10.33
2017-09-18T03:19:42.115Z,8.77
2017-09-18T03:22:09.607Z,9.07
2017-09-18T03:24:37.065Z,9.10
2017-09-18T03:27:04.540Z,8.93
2017-09-18T03:29:32.771Z,8.00
2017-09-18T03:32:00.251Z,8.63
2017-09-18T03:34:28.481Z,8.20
2017-09-18T03:36:55.950Z,9.53
2017-09-18T03:39:23.431Z,8.83
2017-09-18T03:41:50.911Z,10.23
2017-09-18T03:44:19.149Z,8.83
2017-09-18T03:46:46.615Z,8.73
2017-09-18T03:49:14.091Z,8.83
2017-09-18T03:51:42.319Z,9.67
2017-09-18T03:54:09.792Z,9.13
2017-09-18T03:56:37.267Z,9.70
2017-09-18T03:59:04.723Z,8.83
2017-09-18T04:01:32.200Z,8.97
2017-09-18T04:04:00.432Z,9.40
2017-09-18T04:06:27.911Z,8.50
2017-09-18T04:08:55.375Z,8.27
2017-09-18T04:11:23.608Z,9.17
2017-09-18T04:13:51.088Z,7.63
2017-09-18T04:16:18.560Z,9.20
2017-09-18T04:18:46.052Z,9.40
2017-09-18T04:21:13.509Z,8.90
2017-09-18T04:23:40.991Z,8.50
2017-09-18T04:26:08.464Z,8.90
2017-09-18T04:28:35.936Z,10.03
2017-09-18T04:31:03.411Z,9.07
2017-09-18T04:33:31.638Z,9.17
2017-09-18T04:35:59.099Z,8.73
2017-09-18T04:38:26.588Z,8.97
2017-09-18T04:40:54.051Z,9.70
2017-09-18T04:43:21.550Z,9.73
2017-09-18T04:45:49.016Z,10.00
2017-09-18T04:48:16.508Z,9.50
2017-09-18T04:50:43.959Z,9.37
2017-09-18T04:53:11.444Z,10.60
2017-09-18T04:55:39.794Z,9.20
2017-09-18T04:58:07.321Z,9.40
2017-09-18T05:00:34.831Z,9.93
2017-09-18T05:03:03.064Z,9.87
2017-09-18T05:05:30.539Z,9.37
2017-09-18T05:07:58.768Z,9.27
2017-09-18T05:10:26.237Z,9.80
2017-09-18T05:12:53.708Z,9.03
2017-09-18T05:15:21.171Z,10.10
2017-09-18T05:17:48.658Z,9.30
2017-09-18T05:20:16.886Z,9.97
2017-09-18T05:22:44.390Z,9.40
2017-09-18T05:25:11.854Z,10.13
2017-09-18T05:27:40.079Z,8.73
2017-09-18T05:30:07.660Z,8.50
2017-09-18T05:32:35.193Z,8.90
2017-09-18T05:35:02.712Z,8.60
2017-09-18T05:37:30.992Z,9.00
2017-09-18T05:39:58.614Z,9.60
2017-09-18T05:42:26.875Z,9.40
2017-09-18T05:44:54.420Z,8.23
2017-09-18T05:47:21.922Z,9.10
2017-09-18T05:49:50.167Z,9.37
2017-09-18T05:52:17.651Z,8.50
2017-09-18T05:54:46.053Z,9.10
2017-09-18T05:57:13.675Z,9.07
2017-09-18T05:59:42.644Z,9.97
2017-09-18T06:02:10.124Z,8.37
2017-09-18T06:04:37.584Z,9.70
2017-09-18T06:07:05.844Z,9.47
2017-09-18T06:09:33.335Z,10.07
2017-09-18T06:12:01.562Z,9.73
2017-09-18T06:14:29.027Z,10.07
2017-09-18T06:16:56.527Z,10.77
2017-09-18T06:19:24.748Z,9.20
2017-09-18T06:21:52.225Z,9.10
2017-09-18T06:24:19.692Z,9.40
2017-09-18T06:26:47.167Z,10.20
2017-09-18T06:29:15.454Z,10.00
2017-09-18T06:31:43.246Z,10.20
2017-09-18T06:34:10.715Z,9.17
2017-09-18T06:36:38.183Z,9.67
2017-09-18T06:39:05.768Z,9.80
2017-09-18T06:41:33.248Z,9.97
2017-09-18T06:44:00.728Z,10.60
2017-09-18T06:46:28.192Z,10.50
2017-09-18T06:48:55.675Z,10.40
2017-09-18T06:51:23.143Z,10.80
2017-09-18T06:53:52.114Z,10.27
2017-09-18T06:56:19.600Z,12.17
2017-09-18T06:58:47.072Z,11.00
2017-09-18T07:01:15.330Z,10.97
2017-09-18T07:03:42.829Z,10.73
2017-09-18T07:06:10.312Z,10.47
2017-09-18T07:08:37.779Z,10.10
2017-09-18T07:11:05.274Z,12.40
2017-09-18T07:13:33.503Z,10.57
2017-09-18T07:16:00.997Z,11.43
2017-09-18T07:18:29.248Z,11.40
2017-09-18T07:20:57.495Z,10.40
2017-09-18T07:23:24.980Z,13.20
2017-09-18T07:25:52.446Z,12.60
2017-09-18T07:28:19.967Z,12.57
2017-09-18T07:30:47.447Z,15.30
2017-09-18T07:33:14.929Z,17.40
2017-09-18T07:35:43.167Z,16.07
2017-09-18T07:38:10.660Z,15.40
2017-09-18T07:40:38.147Z,15.97
2017-09-18T07:43:05.625Z,15.00
2017-09-18T07:45:33.083Z,15.40
2017-09-18T07:48:00.563Z,14.43
2017-09-18T07:50:28.048Z,15.00
2017-09-18T07:52:56.283Z,12.83
2017-09-18T07:55:23.746Z,13.27
2017-09-18T07:57:51.274Z,11.80
2017-09-18T08:00:18.745Z,13.03
2017-09-18T08:02:46.212Z,13.13
2017-09-18T08:05:13.690Z,12.20
2017-09-18T08:07:41.160Z,12.40
2017-09-18T08:10:09.411Z,13.20
2017-09-18T08:12:38.383Z,13.17
2017-09-18T08:15:05.865Z,14.00
2017-09-18T08:17:34.851Z,12.80
2017-09-18T08:20:02.320Z,13.13
2017-09-18T08:22:29.827Z,14.50
2017-09-18T08:24:57.284Z,16.60
2017-09-18T08:27:24.777Z,14.40
2017-09-18T08:29:52.248Z,16.50
2017-09-18T08:32:19.743Z,14.40
2017-09-18T08:34:47.215Z,14.67
2017-09-18T08:37:14.683Z,14.47
2017-09-18T08:39:42.179Z,14.07
2017-09-18T08:42:09.657Z,15.47
2017-09-18T08:44:37.152Z,14.03
2017-09-18T08:47:04.637Z,15.43
2017-09-18T08:49:32.134Z,15.50
2017-09-18T08:51:59.619Z,14.90
2017-09-18T08:54:27.093Z,15.47
2017-09-18T08:56:54.564Z,15.43
2017-09-18T08:59:22.050Z,15.73
2017-09-18T09:01:50.293Z,13.60
2017-09-18T09:04:17.764Z,17.77
2017-09-18T09:06:45.251Z,18.17
2017-09-18T09:09:12.737Z,18.20
2017-09-18T09:11:40.192Z,21.07
2017-09-18T09:14:07.682Z,19.40
2017-09-18T09:16:35.159Z,17.73
2017-09-18T09:19:03.419Z,16.50
2017-09-18T09:21:30.883Z,17.73
2017-09-18T09:23:59.132Z,19.90
2017-09-18T09:26:26.624Z,17.13
2017-09-18T09:28:54.871Z,18.50
2017-09-18T09:31:22.343Z,19.30
2017-09-18T09:33:49.823Z,20.00
2017-09-18T09:36:18.082Z,18.70
2017-09-18T09:38:46.333Z,19.37
2017-09-18T09:41:13.806Z,19.07
2017-09-18T09:43:42.068Z,20.50
2017-09-18T09:46:09.528Z,19.10
2017-09-18T09:48:37.010Z,18.47
2017-09-18T09:51:05.259Z,20.80
2017-09-18T09:53:32.743Z,18.20
2017-09-18T09:56:00.975Z,19.90
2017-09-18T09:58:28.468Z,19.13
2017-09-18T10:00:56.719Z,19.53
2017-09-18T10:03:24.184Z,19.83
2017-09-18T10:05:51.661Z,18.27
2017-09-18T10:08:19.911Z,18.93
2017-09-18T10:10:48.181Z,20.10
2017-09-18T10:13:15.660Z,20.20
2017-09-18T10:15:43.130Z,18.87
2017-09-18T10:18:10.616Z,17.80
2017-09-18T10:20:38.080Z,19.87
2017-09-18T10:23:05.566Z,18.30
2017-09-18T10:25:34.540Z,18.67
2017-09-18T10:28:01.999Z,17.50
2017-09-18T10:30:29.483Z,18.57
2017-09-18T10:32:56.966Z,18.10
2017-09-18T10:35:25.211Z,17.43
2017-09-18T10:37:52.688Z,16.00
2017-09-18T10:40:20.948Z,18.00
2017-09-18T10:42:48.439Z,18.37
2017-09-18T10:45:15.912Z,15.50
2017-09-18T10:47:43.406Z,13.60
2017-09-18T10:50:10.920Z,14.37
2017-09-18T10:52:38.384Z,14.03
2017-09-18T10:55:05.859Z,14.10
2017-09-18T10:57:33.345Z,15.17
2017-09-18T11:00:00.826Z,13.77
2017-09-18T11:02:28.314Z,15.30
2017-09-18T11:04:55.790Z,15.00
2017-09-18T11:07:23.258Z,14.03
2017-09-18T11:09:50.725Z,13.97
2017-09-18T11:12:18.207Z,13.07
2017-09-18T11:14:45.670Z,10.60
2017-09-18T11:17:13.148Z,11.23
2017-09-18T11:19:40.611Z,10.20
2017-09-18T11:22:08.072Z,8.17
2017-09-18T11:24:35.551Z,7.87
2017-09-18T11:27:03.787Z,7.53
2017-09-18T11:29:31.255Z,7.10
2017-09-18T11:31:58.715Z,7.30
2017-09-18T11:34:26.195Z,7.10
2017-09-18T11:36:54.432Z,7.10
2017-09-18T11:39:21.903Z,6.80
2017-09-18T11:41:49.371Z,5.57
2017-09-18T11:44:16.857Z,5.30
2017-09-18T11:46:45.101Z,5.13
2017-09-18T11:49:12.591Z,5.00
2017-09-18T11:51:40.050Z,5.00
2017-09-18T11:54:08.295Z,4.97
2017-09-18T11:56:35.772Z,4.53
2017-09-18T11:59:03.234Z,4.03
2017-09-18T12:01:31.492Z,3.70
2017-09-18T12:03:58.951Z,3.80
2017-09-18T12:06:26.435Z,3.60
2017-09-18T12:08:54.669Z,3.70
2017-09-18T12:11:22.150Z,3.20
2017-09-18T12:13:49.623Z,3.90
2017-09-18T12:16:17.850Z,3.37
2017-09-18T12:18:45.322Z,3.10
2017-09-18T12:21:12.791Z,3.60
2017-09-18T12:23:40.255Z,2.60
2017-09-18T12:26:08.498Z,2.80
2017-09-18T12:28:35.963Z,2.50
2017-09-18T12:31:03.431Z,2.80
2017-09-18T12:33:30.915Z,2.13
2017-09-18T12:35:58.387Z,2.10
2017-09-18T12:38:25.875Z,1.90
2017-09-18T12:40:53.356Z,1.83
2017-09-18T12:43:21.600Z,1.57
2017-09-18T12:45:49.071Z,2.00
2017-09-18T12:48:16.630Z,2.30
2017-09-18T12:50:44.174Z,1.90
2017-09-18T12:53:11.653Z,1.80
2017-09-18T12:55:39.155Z,1.80
2017-09-18T12:58:06.733Z,2.17
2017-09-18T13:00:34.224Z,1.73
2017-09-18T13:03:01.704Z,1.57
2017-09-18T13:05:30.017Z,2.07
2017-09-18T13:07:57.475Z,1.80
2017-09-18T13:10:25.017Z,2.10
2017-09-18T13:12:52.498Z,1.60
2017-09-18T13:15:20.097Z,1.90
2017-09-18T13:17:47.623Z,1.17
2017-09-18T13:20:15.180Z,1.30
2017-09-18T13:22:42.736Z,1.20
2017-09-18T13:25:10.446Z,1.63
2017-09-18T13:27:38.015Z,1.50
2017-09-18T13:30:06.399Z,2.07
2017-09-18T13:32:34.669Z,1.60
2017-09-18T13:35:02.939Z,1.60
2017-09-18T13:37:30.459Z,1.83
2017-09-18T13:39:58.045Z,1.50
2017-09-18T13:42:26.413Z,1.57
2017-09-18T13:44:53.956Z,1.80
2017-09-18T13:47:21.455Z,1.80
2017-09-18T13:49:49.721Z,1.80
2017-09-18T13:52:17.968Z,2.30
2017-09-18T13:54:45.439Z,2.20
2017-09-18T13:57:12.927Z,2.10
2017-09-18T13:59:40.523Z,2.30
2017-09-18T14:02:08.026Z,2.30
2017-09-18T14:04:36.392Z,2.97
2017-09-18T14:07:03.863Z,3.10
2017-09-18T14:09:31.335Z,3.23
2017-09-18T14:11:59.594Z,3.20
2017-09-18T14:14:27.815Z,3.10
2017-09-18T14:16:55.304Z,3.97
2017-09-18T14:19:22.785Z,4.00
2017-09-18T14:21:51.028Z,4.40
2017-09-18T14:24:18.783Z,4.20
2017-09-18T14:26:46.255Z,2.87
2017-09-18T14:29:13.737Z,2.40
2017-09-18T14:31:41.971Z,2.00
2017-09-18T14:34:09.448Z,2.30
2017-09-18T14:36:36.910Z,2.07
2017-09-18T14:39:04.372Z,2.07
2017-09-18T14:41:31.943Z,2.30
2017-09-18T14:44:00.308Z,1.97
2017-09-18T14:46:28.624Z,2.10
2017-09-18T14:48:56.150Z,2.30
2017-09-18T14:51:23.729Z,2.70
2017-09-18T14:53:51.250Z,2.50
2017-09-18T14:56:19.484Z,2.70
2017-09-18T14:58:46.944Z,2.43
2017-09-18T15:01:14.704Z,2.63
2017-09-18T15:03:42.183Z,3.00
2017-09-18T15:06:09.644Z,3.00
2017-09-18T15:08:37.117Z,2.53
2017-09-18T15:11:05.117Z,2.40
2017-09-18T15:13:32.771Z,2.70
2017-09-18T15:16:00.235Z,2.90
2017-09-18T15:18:27.808Z,2.33
2017-09-18T15:20:55.331Z,2.00
2017-09-18T15:23:23.630Z,2.30
2017-09-18T15:25:51.180Z,2.50
2017-09-18T15:28:18.661Z,2.40
2017-09-18T15:30:46.763Z,2.20
2017-09-18T15:33:15.285Z,2.50
2017-09-18T15:35:43.524Z,2.20
2017-09-18T15:38:12.528Z,2.10
2017-09-18T15:40:40.793Z,2.10
2017-09-18T15:43:08.277Z,2.27
2017-09-18T15:45:36.538Z,2.20
2017-09-18T15:48:04.081Z,1.93
2017-09-18T15:50:32.375Z,2.10
2017-09-18T15:52:59.799Z,2.50
2017-09-18T15:55:27.284Z,2.47
2017-09-18T15:57:56.260Z,2.30
2017-09-18T16:00:23.711Z,2.60
2017-09-18T16:02:51.199Z,2.70
2017-09-18T16:05:19.435Z,2.67
2017-09-18T16:07:46.935Z,3.17
2017-09-18T16:10:15.173Z,2.93
2017-09-18T16:12:42.642Z,2.90
2017-09-18T16:15:10.245Z,3.40
2017-09-18T16:17:37.746Z,3.60
2017-09-18T16:20:05.244Z,3.40
2017-09-18T16:22:33.497Z,3.53
2017-09-18T16:25:00.967Z,3.50
2017-09-18T16:27:29.200Z,3.30
2017-09-18T16:29:56.677Z,3.30
2017-09-18T16:32:24.137Z,3.70
2017-09-18T16:34:52.404Z,3.13
2017-09-18T16:37:19.867Z,3.20
2017-09-18T16:39:47.355Z,2.73
2017-09-18T16:42:15.586Z,3.20
2017-09-18T16:44:43.076Z,3.10
2017-09-18T16:47:11.526Z,3.70
2017-09-18T16:49:39.784Z,3.27
2017-09-18T16:52:07.318Z,2.80
2017-09-18T16:54:34.783Z,3.60
2017-09-18T16:57:02.299Z,3.80
2017-09-18T16:59:30.679Z,4.37
2017-09-18T17:01:58.914Z,5.40
2017-09-18T17:04:26.437Z,5.90
2017-09-18T17:06:54.039Z,6.40
2017-09-18T17:09:21.758Z,6.70
2017-09-18T17:11:49.384Z,4.43
2017-09-18T17:14:17.064Z,5.80
2017-09-18T17:16:44.652Z,4.30
2017-09-18T17:19:12.423Z,5.47
2017-09-18T17:21:40.159Z,5.00
2017-09-18T17:24:08.397Z,5.47
2017-09-18T17:26:35.992Z,4.30
2017-09-18T17:29:03.548Z,5.10
2017-09-18T17:31:32.101Z,4.73
2017-09-18T17:33:59.618Z,5.60
2017-09-18T17:36:27.134Z,5.00
2017-09-18T17:38:55.463Z,9.30
2017-09-18T17:41:23.050Z,10.63
2017-09-18T17:43:51.505Z,13.53
2017-09-18T17:46:19.064Z,7.77
2017-09-18T17:48:46.641Z,7.67
2017-09-18T17:51:14.168Z,7.80
2017-09-18T17:53:41.731Z,8.03
2017-09-18T17:56:09.388Z,7.30
2017-09-18T17:58:36.968Z,7.50
2017-09-18T18:01:04.443Z,8.10
2017-09-18T18:03:32.400Z,8.83
2017-09-18T18:05:59.890Z,9.53
2017-09-18T18:08:28.396Z,8.33
2017-09-18T18:10:56.059Z,8.80
2017-09-18T18:13:23.589Z,9.60
2017-09-18T18:15:51.964Z,10.00
2017-09-18T18:18:20.243Z,10.50
2017-09-18T18:20:48.976Z,10.37
2017-09-18T18:23:16.499Z,10.77
2017-09-18T18:25:44.024Z,11.37
2017-09-18T18:28:11.571Z,9.47
2017-09-18T18:30:39.060Z,9.30
2017-09-18T18:33:06.577Z,9.77
2017-09-18T18:35:34.047Z,11.30
2017-09-18T18:38:02.342Z,11.27
2017-09-18T18:40:30.693Z,10.60
2017-09-18T18:42:59.072Z,10.70
2017-09-18T18:45:27.431Z,10.47
2017-09-18T18:47:54.919Z,10.80
2017-09-18T18:50:22.396Z,11.40
2017-09-18T18:52:49.904Z,12.90
2017-09-18T18:55:17.406Z,11.80
2017-09-18T18:57:45.671Z,12.33
2017-09-18T19:00:13.135Z,12.67
2017-09-18T19:02:41.497Z,12.00
2017-09-18T19:05:09.040Z,12.50
2017-09-18T19:07:37.361Z,12.77
2017-09-18T19:10:04.930Z,11.07
2017-09-18T19:12:32.546Z,12.00
2017-09-18T19:15:00.138Z,12.00
2017-09-18T19:17:28.445Z,10.70
2017-09-18T19:19:56.047Z,11.80
2017-09-18T19:22:24.445Z,13.93
2017-09-18T19:24:52.759Z,13.77
2017-09-18T19:27:21.411Z,14.73
2017-09-18T19:29:49.648Z,9.93
2017-09-18T19:32:17.182Z,11.23
2017-09-18T19:34:44.664Z,10.40
2017-09-18T19:37:12.156Z,10.20
2017-09-18T19:39:40.847Z,11.10
2017-09-18T19:42:08.405Z,11.67
2017-09-18T19:44:36.799Z,10.03
2017-09-18T19:47:04.323Z,10.50
2017-09-18T19:49:31.888Z,11.20
2017-09-18T19:51:59.498Z,10.40
2017-09-18T19:54:27.020Z,11.30
2017-09-18T19:56:54.498Z,11.13
2017-09-18T19:59:21.964Z,9.83
2017-09-18T20:01:49.454Z,13.40
2017-09-18T20:04:16.955Z,15.17
2017-09-18T20:06:44.449Z,14.97
2017-09-18T20:09:12.055Z,21.63
2017-09-18T20:11:40.295Z,15.67
2017-09-18T20:14:07.776Z,16.90
2017-09-18T20:16:36.037Z,15.40
2017-09-18T20:19:03.510Z,16.40
2017-09-18T20:21:31.773Z,15.50
2017-09-18T20:24:00.752Z,16.40
2017-09-18T20:26:28.235Z,15.80
2017-09-18T20:28:56.471Z,17.87
2017-09-18T20:31:23.996Z,15.97
2017-09-18T20:33:51.472Z,15.83
2017-09-18T20:36:18.947Z,16.20
2017-09-18T20:38:46.453Z,16.00
2017-09-18T20:41:13.915Z,17.73
2017-09-18T20:43:41.392Z,18.30
2017-09-18T20:46:08.867Z,16.97
2017-09-18T20:48:36.348Z,18.07
2017-09-18T20:51:03.844Z,18.63
2017-09-18T20:53:31.340Z,20.03
2017-09-18T20:55:58.823Z,18.47
2017-09-18T20:58:26.297Z,19.30
2017-09-18T21:00:54.544Z,19.10
2017-09-18T21:03:23.547Z,19.73
2017-09-18T21:05:51.023Z,20.37
2017-09-18T21:08:19.256Z,21.20
2017-09-18T21:10:46.739Z,21.87
2017-09-18T21:13:14.994Z,21.60
2017-09-18T21:15:42.455Z,21.17
2017-09-18T21:18:10.720Z,23.50
2017-09-18T21:20:38.244Z,21.93
2017-09-18T21:23:05.719Z,22.83
2017-09-18T21:25:33.187Z,22.40
2017-09-18T21:28:00.693Z,20.43
2017-09-18T21:30:28.915Z,21.67
2017-09-18T21:32:56.383Z,24.20
2017-09-18T21:35:23.873Z,22.53
2017-09-18T21:37:52.103Z,21.83
2017-09-18T21:40:19.577Z,21.23
2017-09-18T21:42:47.060Z,22.10
2017-09-18T21:45:15.305Z,23.03
2017-09-18T21:47:42.771Z,23.30
2017-09-18T21:50:10.266Z,23.63
2017-09-18T21:52:37.739Z,24.70
2017-09-18T21:55:05.216Z,26.30
2017-09-18T21:57:32.727Z,26.10
2017-09-18T22:00:00.964Z,26.47
2017-09-18T22:02:29.988Z,27.47
2017-09-18T22:04:58.220Z,26.97
2017-09-18T22:07:25.700Z,26.73
2017-09-18T22:09:53.178Z,27.97
2017-09-18T22:12:20.642Z,27.43
2017-09-18T22:14:48.135Z,27.13
2017-09-18T22:17:15.620Z,27.67
2017-09-18T22:19:43.106Z,29.30
2017-09-18T22:22:11.352Z,28.37
2017-09-18T22:24:38.824Z,28.43
2017-09-18T22:27:06.286Z,30.33
2017-09-18T22:29:34.530Z,27.83
2017-09-18T22:32:02.018Z,27.90
2017-09-18T22:34:30.276Z,29.13
2017-09-18T22:36:57.734Z,29.37
2017-09-18T22:39:25.220Z,28.90
2017-09-18T22:41:52.688Z,30.90
2017-09-18T22:44:20.180Z,28.60
2017-09-18T22:46:47.642Z,28.50
2017-09-18T22:49:15.138Z,29.60
2017-09-18T22:51:43.406Z,28.57
2017-09-18T22:54:11.637Z,28.40
2017-09-18T22:56:39.108Z,29.07
2017-09-18T22:59:06.601Z,29.37
2017-09-18T23:01:34.852Z,29.83
2017-09-18T23:04:02.340Z,28.53
2017-09-18T23:06:30.568Z,27.80
2017-09-18T23:08:58.051Z,31.07
2017-09-18T23:11:26.303Z,29.03
2017-09-18T23:13:53.798Z,29.20
2017-09-18T23:16:22.036Z,30.80
2017-09-18T23:18:51.015Z,31.10
2017-09-18T23:21:18.508Z,29.40
2017-09-18T23:23:46.745Z,29.53
2017-09-18T23:26:14.219Z,30.00
2017-09-18T23:28:41.695Z,30.97
2017-09-18T23:31:09.922Z,31.87
2017-09-18T23:33:37.403Z,31.50
2017-09-18T23:36:04.871Z,30.87
2017-09-18T23:38:32.361Z,31.50
2017-09-18T23:40:59.938Z,33.40
2017-09-18T23:43:27.403Z,35.37
2017-09-18T23:45:54.891Z,33.47
2017-09-18T23:48:22.359Z,33.23
2017-09-18T23:50:49.844Z,36.40
2017-09-18T23:53:17.331Z,35.03
2017-09-18T23:55:44.822Z,35.10
2017-09-18T23:58:12.288Z,34.17
